Time;durP1;ratioP1;P1;durP2;ratioP2;P2;SDS_P1;SDS_P2;PMS_P1;PMS_P2;Temp;Humidity;BMP_temperature;BMP_pressure;BME280_temperature;BME280_humidity;BME280_pressure;Samples;Min_cycle;Max_cycle;Signal;HPM_P1;HPM_P2
2022/12/12 00:01:54;;;;;;;69.80;42.25;;;-1.60;99.90;;;-3.02;100.00;100463.75;4169545;28;20405;-75
2022/12/12 00:03:55;;;;;;;70.88;40.65;;;-1.70;99.90;;;-3.02;100.00;100472.34;4153109;28;20595;-75
2022/12/12 00:05:56;;;;;;;67.85;40.05;;;-1.70;99.90;;;-3.00;100.00;100472.25;4158621;28;20029;-75
2022/12/12 00:07:57;;;;;;;67.07;39.97;;;-1.80;99.90;;;-3.01;100.00;100470.56;4170610;28;20033;-75
2022/12/12 00:09:58;;;;;;;58.63;35.83;;;-1.80;99.90;;;-3.06;100.00;100463.06;4170390;28;20400;-75
2022/12/12 00:11:59;;;;;;;68.32;38.65;;;-1.80;99.90;;;-3.03;100.00;100467.22;4170578;28;20028;-75
2022/12/12 00:14:00;;;;;;;61.85;35.38;;;-1.80;99.90;;;-3.07;100.00;100468.28;4170696;28;20038;-75
2022/12/12 00:16:03;;;;;;;62.30;37.38;;;-1.80;99.90;;;-3.07;100.00;100460.56;4169219;28;20084;-75
2022/12/12 00:18:04;;;;;;;68.90;37.75;;;-1.80;99.90;;;-3.04;100.00;100465.56;4169469;28;20036;-75
2022/12/12 00:20:05;;;;;;;68.20;40.10;;;-1.80;99.90;;;-3.00;100.00;100477.41;4170488;28;20400;-75
2022/12/12 00:22:06;;;;;;;62.60;38.90;;;-1.80;99.90;;;-3.01;100.00;100470.56;4169541;28;20037;-75
2022/12/12 00:24:08;;;;;;;71.53;36.65;;;-1.80;99.90;;;-2.98;100.00;100473.84;4169434;28;20501;-75
2022/12/12 00:26:22;;;;;;;55.40;35.42;;;-1.80;99.90;;;-2.99;100.00;100472.19;4170560;28;20033;-76
2022/12/12 00:28:25;;;;;;;62.58;36.90;;;-1.70;99.90;;;-3.01;100.00;100466.25;4169156;28;20037;-75
2022/12/12 00:30:26;;;;;;;63.35;37.13;;;-1.70;99.90;;;-2.98;100.00;100466.09;4169617;28;20029;-75
2022/12/12 00:32:27;;;;;;;62.95;38.03;;;-1.70;99.90;;;-2.96;100.00;100460.88;4169131;28;20048;-75
2022/12/12 00:34:28;;;;;;;59.65;37.47;;;-1.70;99.90;;;-2.99;100.00;100461.03;4170419;28;20030;-75
2022/12/12 00:36:30;;;;;;;64.40;37.65;;;-1.70;99.90;;;-3.01;100.00;100457.66;4170324;28;20017;-75
2022/12/12 00:38:31;;;;;;;58.40;35.15;;;-1.70;99.90;;;-2.98;100.00;100460.09;4170449;28;20413;-75
2022/12/12 00:40:32;;;;;;;61.63;35.20;;;-1.70;99.90;;;-3.02;100.00;100445.69;4169179;28;20140;-75
2022/12/12 00:42:33;;;;;;;61.38;34.22;;;-1.80;99.90;;;-3.04;100.00;100443.19;4169185;28;20064;-75
2022/12/12 00:44:34;;;;;;;57.03;35.78;;;-1.80;99.90;;;-3.00;100.00;100449.88;4169907;28;20068;-75
2022/12/12 00:46:35;;;;;;;57.20;33.72;;;-1.80;99.90;;;-3.00;100.00;100451.59;4184113;28;20033;-75
2022/12/12 00:48:35;;;;;;;56.30;34.17;;;-1.80;99.90;;;-3.02;100.00;100450.84;4170303;28;20053;-75
2022/12/12 00:50:36;;;;;;;52.03;32.17;;;-1.80;99.90;;;-2.98;100.00;100447.19;4170247;28;20032;-75
2022/12/12 00:52:37;;;;;;;51.58;30.70;;;-1.80;99.90;;;-2.98;100.00;100445.44;4168915;28;20089;-75
2022/12/12 00:54:38;;;;;;;55.80;31.35;;;-1.70;99.90;;;-2.96;100.00;100458.28;4170332;28;20026;-75
2022/12/12 00:56:40;;;;;;;55.42;30.80;;;-1.70;99.90;;;-2.98;100.00;100457.50;4169122;28;20101;-75
2022/12/12 00:58:40;;;;;;;60.08;33.47;;;-1.70;99.90;;;-2.98;100.00;100463.50;4168955;28;20113;-75
2022/12/12 01:00:42;;;;;;;51.83;30.15;;;-1.70;99.90;;;-2.97;100.00;100465.19;4168793;28;20033;-75
2022/12/12 01:02:43;;;;;;;51.17;28.27;;;-1.70;99.90;;;-2.98;100.00;100462.66;4169979;28;20032;-75
2022/12/12 01:04:44;;;;;;;49.75;29.25;;;-1.70;99.90;;;-2.97;100.00;100466.94;4170067;28;20026;-75
2022/12/12 01:06:45;;;;;;;48.70;29.98;;;-1.70;99.90;;;-3.01;100.00;100466.25;4170115;28;20108;-75
2022/12/12 01:08:46;;;;;;;46.30;29.17;;;-1.80;99.90;;;-3.00;100.00;100461.91;4168395;28;20036;-75
2022/12/12 01:10:47;;;;;;;48.08;29.38;;;-1.80;99.90;;;-3.01;100.00;100465.41;4151768;28;20493;-75
2022/12/12 01:12:48;;;;;;;49.97;29.80;;;-1.80;99.90;;;-3.01;100.00;100468.81;4168883;28;20033;-75
2022/12/12 01:14:49;;;;;;;49.60;29.33;;;-1.80;99.90;;;-3.00;100.00;100472.25;4168477;28;20072;-75
2022/12/12 01:16:50;;;;;;;50.70;31.02;;;-1.80;99.90;;;-3.09;100.00;100463.22;4167361;28;20551;-75
2022/12/12 01:18:51;;;;;;;49.03;29.48;;;-1.80;99.90;;;-3.05;100.00;100477.66;4168629;28;20037;-75
2022/12/12 01:20:52;;;;;;;51.65;28.75;;;-1.80;99.90;;;-3.08;100.00;100469.22;4169969;28;20030;-75
2022/12/12 01:22:53;;;;;;;55.15;32.42;;;-1.80;99.90;;;-3.09;100.00;100477.88;4168774;28;20031;-75
2022/12/12 01:24:55;;;;;;;61.17;33.03;;;-1.80;99.90;;;-3.07;100.00;100479.44;4168401;28;20037;-75
2022/12/12 01:26:56;;;;;;;57.13;32.13;;;-1.80;99.90;;;-3.14;100.00;100477.25;4169995;28;20025;-75
2022/12/12 01:28:57;;;;;;;55.25;31.08;;;-1.90;99.90;;;-3.16;100.00;100477.31;4169706;28;20109;-75
2022/12/12 01:30:58;;;;;;;53.58;31.67;;;-1.80;99.90;;;-3.20;100.00;100464.66;4169356;28;20035;-75
2022/12/12 01:32:59;;;;;;;47.70;29.23;;;-1.80;99.90;;;-3.05;100.00;100474.22;4168295;28;20110;-75
2022/12/12 01:35:00;;;;;;;44.95;28.40;;;-1.80;99.90;;;-3.06;100.00;100467.38;4169609;28;20056;-75
2022/12/12 01:37:01;;;;;;;44.15;26.40;;;-1.80;99.90;;;-3.06;100.00;100462.22;4169515;28;20026;-75
2022/12/12 01:39:04;;;;;;;42.05;26.15;;;-1.80;99.90;;;-3.01;100.00;100481.72;4168277;28;20563;-75
2022/12/12 01:41:05;;;;;;;43.80;28.42;;;-1.80;99.90;;;-2.97;100.00;100479.81;4168126;28;20025;-75
2022/12/12 01:43:15;;;;;;;45.38;27.15;;;-1.70;99.90;;;-2.96;100.00;100473.78;4169466;28;20033;-75
2022/12/12 01:46:02;;;;;;;42.17;27.08;;;-1.70;99.90;;;-2.91;100.00;100475.19;4168386;28;20028;-75
2022/12/12 01:48:03;;;;;;;41.17;25.60;;;-1.70;99.90;;;-2.96;100.00;100469.44;4169596;28;20036;-75
2022/12/12 01:50:09;;;;;;;47.53;28.35;;;-1.60;99.90;;;-2.93;100.00;100469.25;4169516;28;20029;-75
2022/12/12 01:52:18;;;;;;;51.45;29.15;;;-1.70;99.90;;;-2.93;100.00;100471.84;4168172;28;20632;-75
2022/12/12 01:54:26;;;;;;;52.33;28.70;;;-1.60;99.90;;;-2.92;100.00;100483.00;4167928;28;20029;-75
2022/12/12 01:56:28;;;;;;;50.00;28.23;;;-1.60;99.90;;;-2.96;100.00;100484.09;4168336;28;20107;-75
2022/12/12 01:58:30;;;;;;;49.47;27.85;;;-1.70;99.90;;;-2.97;100.00;100493.56;4168122;28;20033;-75
2022/12/12 02:00:31;;;;;;;50.50;28.52;;;-1.70;99.90;;;-2.96;100.00;100494.41;4167921;28;20520;-75
2022/12/12 02:02:32;;;;;;;50.10;28.15;;;-1.70;99.90;;;-2.96;100.00;100494.41;4168983;28;20087;-75
2022/12/12 02:04:33;;;;;;;52.83;29.58;;;-1.70;99.90;;;-2.91;100.00;100498.41;4167980;28;20116;-75
2022/12/12 02:06:35;;;;;;;53.63;30.73;;;-1.60;99.90;;;-2.89;100.00;100496.59;4168055;28;20033;-75
2022/12/12 02:08:37;;;;;;;46.65;28.52;;;-1.60;99.90;;;-2.78;100.00;100498.66;4168915;28;20086;-75
2022/12/12 02:10:38;;;;;;;54.03;29.27;;;-1.50;99.90;;;-2.80;100.00;100501.28;4155073;28;20555;-74
2022/12/12 02:12:40;;;;;;;48.70;27.58;;;-1.50;99.90;;;-2.77;100.00;100497.72;4169295;28;20021;-74
2022/12/12 02:14:47;;;;;;;54.78;29.23;;;-1.50;99.90;;;-2.73;100.00;100506.97;4168857;28;20543;-75
2022/12/12 02:17:42;;;;;;;56.80;30.45;;;-1.40;99.90;;;-2.72;100.00;100519.00;4167482;28;20033;-75
2022/12/12 02:20:26;;;;;;;65.15;30.38;;;-1.40;99.90;;;-2.63;100.00;100518.53;4168986;28;20143;-75
2022/12/12 02:23:33;;;;;;;55.92;28.77;;;-1.40;99.90;;;-2.53;100.00;100519.69;4168069;28;20496;-75
2022/12/12 02:25:59;;;;;;;;;;;-1.30;99.90;;;-2.48;100.00;100522.88;4113465;28;20039;-75
2022/12/12 02:28:26;;;;;;;51.83;26.55;;;-1.20;99.90;;;-2.46;100.00;100528.81;4102584;28;19910;-74
2022/12/12 02:31:02;;;;;;;59.35;30.17;;;-1.10;99.90;;;-2.43;100.00;100532.97;4136408;28;20048;-75
2022/12/12 02:33:38;;;;;;;57.72;30.25;;;-1.20;99.90;;;-2.35;100.00;100536.00;4142272;28;20413;-75
2022/12/12 02:36:46;;;;;;;62.50;30.95;;;-1.10;99.90;;;-2.24;100.00;100526.75;4167417;28;20109;-75
2022/12/12 02:39:06;;;;;;;55.30;29.50;;;-1.00;99.90;;;-2.19;100.00;100517.94;4156832;28;20152;-75
2022/12/12 02:41:27;;;;;;;65.45;31.83;;;-0.90;99.90;;;-2.15;100.00;100516.88;4168583;28;20025;-75
2022/12/12 02:43:39;;;;;;;65.90;31.52;;;-0.90;99.90;;;-2.10;100.00;100525.22;4151038;28;20029;-75
2022/12/12 02:45:53;;;;;;;68.50;34.35;;;-0.90;99.90;;;-2.06;100.00;100516.38;4163335;28;20485;-75
2022/12/12 02:48:02;;;;;;;68.22;33.45;;;-0.90;99.90;;;-2.04;100.00;100511.97;4168416;28;20022;-75
2022/12/12 02:50:10;;;;;;;66.40;33.42;;;-0.80;99.90;;;-1.99;100.00;100513.38;4167639;28;20026;-75
2022/12/12 02:52:12;;;;;;;59.67;33.13;;;-0.80;99.90;;;-1.96;100.00;100514.97;4167528;28;20068;-75
2022/12/12 02:54:17;;;;;;;64.68;33.90;;;-0.70;99.90;;;-1.98;100.00;100519.38;4167304;28;20017;-74
2022/12/12 02:56:52;;;;;;;57.13;31.70;;;-0.70;99.90;;;-1.99;100.00;100515.97;4167679;28;20022;-75
2022/12/12 02:58:53;;;;;;;40.47;22.52;;;-0.70;99.90;;;-1.98;100.00;100514.22;4167593;28;20032;-75
2022/12/12 03:01:31;;;;;;;59.88;31.02;;;-0.70;99.90;;;-1.96;100.00;100520.13;4168207;28;20116;-75
2022/12/12 03:09:58;;;;;;;51.47;26.52;;;-0.70;99.90;;;-1.95;100.00;100514.06;4168362;28;20040;-75
2022/12/12 03:12:10;;;;;;;57.53;29.55;;;-0.70;99.90;;;-2.01;100.00;100504.88;4167136;28;20029;-75
2022/12/12 03:14:50;;;;;;;54.20;29.38;;;-0.70;99.90;;;-2.01;100.00;100506.63;4167198;28;20104;-75
2022/12/12 03:17:08;;;;;;;48.80;27.85;;;-0.70;99.90;;;-2.12;100.00;100499.44;4119341;28;20541;-75
2022/12/12 03:20:24;;;;;;;52.10;28.85;;;-0.80;99.90;;;-2.17;100.00;100500.59;4141854;28;20046;-75
2022/12/12 03:22:38;;;;;;;49.45;26.67;;;-0.90;99.90;;;-2.19;100.00;100499.84;4118265;28;20038;-75
2022/12/12 03:24:49;;;;;;;48.17;28.23;;;-0.90;99.90;;;-2.26;100.00;100494.19;4102790;28;20035;-75
2022/12/12 03:27:09;;;;;;;50.03;27.65;;;-1.00;99.90;;;-2.32;100.00;100497.91;4105378;28;20038;-75
2022/12/12 03:29:24;;;;;;;54.13;26.67;;;-1.00;99.90;;;-2.36;100.00;100491.25;4167399;28;20029;-75
2022/12/12 03:31:30;;;;;;;44.08;24.25;;;-1.10;99.90;;;-2.36;100.00;100493.00;4167059;28;20034;-75
2022/12/12 03:33:45;;;;;;;39.60;24.15;;;-1.10;99.90;;;-2.39;100.00;100506.91;4168374;28;20032;-75
2022/12/12 03:35:55;;;;;;;35.38;22.75;;;-1.10;99.90;;;-2.36;100.00;100499.00;4171396;28;20022;-75
2022/12/12 03:38:07;;;;;;;38.33;23.23;;;-1.10;99.90;;;-2.31;100.00;100509.94;4170109;28;20032;-75
2022/12/12 03:40:23;;;;;;;44.90;25.23;;;-1.00;99.90;;;-2.20;100.00;100511.94;4170475;28;20477;-75
2022/12/12 03:42:53;;;;;;;36.17;22.95;;;-1.00;99.90;;;-2.14;100.00;100508.19;4170160;28;20057;-75
2022/12/12 03:45:07;;;;;;;33.70;20.58;;;-0.90;99.90;;;-2.15;100.00;100512.53;4170337;28;20057;-75
2022/12/12 03:47:27;;;;;;;34.85;20.35;;;-0.90;99.90;;;-2.13;100.00;100517.63;4169975;28;20022;-74
2022/12/12 03:49:55;;;;;;;35.95;20.02;;;-0.90;99.90;;;-2.13;100.00;100502.13;4154007;28;20042;-75
2022/12/12 03:52:14;;;;;;;33.60;20.60;;;-0.90;99.90;;;-2.11;100.00;100502.88;4171326;28;20028;-75
2022/12/12 03:54:36;;;;;;;32.88;20.42;;;-0.80;99.90;;;-2.07;100.00;100501.78;4169868;28;20513;-75
2022/12/12 03:56:43;;;;;;;40.90;21.38;;;-0.80;99.90;;;-2.10;100.00;100497.63;4171350;28;20428;-75
2022/12/12 03:59:01;;;;;;;38.20;21.33;;;-0.90;99.90;;;-2.12;100.00;100503.78;4171010;28;20041;-74
2022/12/12 04:01:06;;;;;;;35.05;20.23;;;-0.80;99.90;;;-2.10;100.00;100500.22;4169881;28;20136;-74
2022/12/12 04:03:25;;;;;;;35.67;20.38;;;-0.80;99.90;;;-2.13;100.00;100507.28;4169985;28;20116;-75
2022/12/12 04:08:16;;;;;;;34.75;21.25;;;-0.90;99.90;;;-2.16;100.00;100494.53;4170122;28;20154;-75
2022/12/12 04:12:58;;;;;;;36.78;21.88;;;-0.80;99.90;;;-2.09;100.00;100498.47;4167312;28;20159;-75
2022/12/12 04:15:38;;;;;;;46.40;25.00;;;-0.80;99.90;;;-2.02;100.00;100495.47;4166387;28;20072;-75
2022/12/12 04:17:47;;;;;;;47.50;25.55;;;-0.80;99.90;;;-2.00;100.00;100495.38;4162103;28;20469;-75
2022/12/12 04:25:06;;;;;;;43.67;24.60;;;-0.70;99.90;;;-1.97;100.00;100483.09;4165753;28;20031;-75
2022/12/12 04:27:24;;;;;;;41.72;23.60;;;-0.70;99.90;;;-1.98;100.00;100480.63;4159107;28;20033;-75
2022/12/12 04:29:30;;;;;;;42.35;22.48;;;-0.70;99.90;;;-2.00;100.00;100478.09;4170430;28;20080;-75
2022/12/12 04:31:33;;;;;;;38.72;23.73;;;-0.70;99.90;;;-2.05;100.00;100461.19;4168994;28;20123;-75
2022/12/12 04:33:45;;;;;;;39.05;23.08;;;-0.80;99.90;;;-2.03;100.00;100461.97;4169378;28;20029;-75
2022/12/12 04:35:49;;;;;;;37.35;23.38;;;-0.80;99.90;;;-2.02;100.00;100461.03;4169383;28;20087;-75
2022/12/12 04:37:59;;;;;;;38.88;23.13;;;-0.80;99.90;;;-2.01;100.00;100473.03;4169343;28;20033;-75
2022/12/12 04:40:06;;;;;;;36.30;21.75;;;-0.80;99.90;;;-2.05;100.00;100454.28;4169504;28;20626;-75
2022/12/12 04:42:10;;;;;;;40.90;22.35;;;-0.80;99.90;;;-2.00;100.00;100462.59;4169201;28;20432;-75
2022/12/12 04:44:14;;;;;;;40.38;23.27;;;-0.80;99.90;;;-2.00;100.00;100464.38;4169054;28;20052;-75
2022/12/12 04:46:22;;;;;;;36.97;22.10;;;-0.80;99.90;;;-2.01;100.00;100467.88;4169609;28;20033;-75
2022/12/12 04:48:46;;;;;;;46.92;22.88;;;-0.80;99.90;;;-1.98;100.00;100462.53;4169129;28;20571;-75
2022/12/12 04:50:52;;;;;;;42.08;22.48;;;-0.70;99.90;;;-2.00;100.00;100464.38;4168964;28;20029;-75
2022/12/12 04:52:55;;;;;;;37.00;23.30;;;-0.70;99.90;;;-1.99;100.00;100460.84;4169099;28;20026;-75
2022/12/12 04:55:04;;;;;;;25.55;15.95;;;-0.70;99.90;;;-2.00;100.00;100469.53;4169047;28;20033;-75
2022/12/12 04:57:10;;;;;;;35.40;19.65;;;-0.80;99.90;;;-2.05;100.00;100458.59;4169040;28;20026;-75
2022/12/12 04:59:12;;;;;;;65.07;22.60;;;-0.80;99.90;;;-2.11;100.00;100448.59;4168827;28;20402;-75
2022/12/12 05:01:40;;;;;;;45.50;20.52;;;-0.80;99.90;;;-1.99;100.00;100466.03;4168655;28;20029;-75
2022/12/12 05:03:54;;;;;;;46.25;20.70;;;-0.80;99.90;;;-1.98;100.00;100472.88;4169000;28;20425;-75
2022/12/12 05:06:06;;;;;;;38.22;18.80;;;-0.70;99.90;;;-1.95;100.00;100477.88;4168976;28;20536;-75
2022/12/12 05:08:42;;;;;;;35.03;18.55;;;-0.70;99.90;;;-1.89;100.00;100487.88;4168608;28;20033;-75
2022/12/12 05:10:55;;;;;;;53.47;21.05;;;-0.70;99.90;;;-1.91;100.00;100482.78;4156502;28;20072;-75
2022/12/12 05:12:59;;;;;;;37.78;18.92;;;-0.60;99.90;;;-1.90;100.00;100476.69;4169123;28;20065;-75
2022/12/12 05:15:00;;;;;;;45.55;19.60;;;-0.70;99.90;;;-1.94;100.00;100474.38;4174937;28;20037;-75
2022/12/12 05:17:09;;;;;;;31.95;18.08;;;-0.70;99.90;;;-1.90;100.00;100478.44;4168407;28;20029;-75
2022/12/12 05:19:10;;;;;;;39.25;19.38;;;-0.60;99.90;;;-1.96;100.00;100471.03;4168759;28;20489;-75
2022/12/12 05:21:12;;;;;;;36.88;18.83;;;-0.70;99.90;;;-1.92;100.00;100478.53;4168341;28;20083;-75
2022/12/12 05:23:13;;;;;;;33.85;18.77;;;-0.70;99.90;;;-1.98;100.00;100467.69;4169799;28;20039;-75
2022/12/12 05:25:14;;;;;;;33.78;18.33;;;-0.70;99.90;;;-2.00;100.00;100472.13;4151851;28;20054;-75
2022/12/12 05:27:14;;;;;;;31.73;17.27;;;-0.70;99.90;;;-2.00;100.00;100482.47;4159513;28;20025;-75
2022/12/12 05:29:15;;;;;;;30.90;17.50;;;-0.70;99.90;;;-2.04;100.00;100480.94;4169671;28;20033;-75
2022/12/12 05:31:16;;;;;;;29.23;16.90;;;-0.80;99.90;;;-2.00;100.00;100480.69;4168338;28;20489;-75
2022/12/12 05:33:17;;;;;;;36.92;17.23;;;-0.70;99.90;;;-2.00;100.00;100466.97;4169421;28;20030;-74
2022/12/12 05:35:18;;;;;;;26.02;15.50;;;-0.70;99.90;;;-1.95;100.00;100476.13;4169824;28;20022;-75
2022/12/12 05:37:19;;;;;;;27.23;16.05;;;-0.70;99.90;;;-1.91;100.00;100472.44;4151843;28;20101;-74
2022/12/12 05:39:20;;;;;;;26.92;15.60;;;-0.70;99.90;;;-1.86;100.00;100478.22;4165033;28;20034;-74
2022/12/12 05:41:21;;;;;;;30.50;16.10;;;-0.70;99.90;;;-1.81;100.00;100472.78;4168026;28;20060;-74
2022/12/12 05:43:22;;;;;;;36.35;18.52;;;-0.60;99.90;;;-1.77;100.00;100469.94;4168083;28;20488;-75
2022/12/12 05:45:23;;;;;;;33.47;17.85;;;-0.60;99.90;;;-1.76;100.00;100460.41;4161229;28;20065;-75
2022/12/12 05:47:24;;;;;;;31.75;20.05;;;-0.60;99.90;;;-1.78;100.00;100455.34;4167966;28;20534;-75
2022/12/12 05:49:24;;;;;;;38.25;21.35;;;-0.50;99.90;;;-1.75;100.00;100451.75;4167902;28;20056;-75
2022/12/12 05:51:25;;;;;;;29.92;18.70;;;-0.50;99.90;;;-1.72;100.00;100456.75;4151637;28;20026;-74
2022/12/12 05:53:26;;;;;;;28.75;17.38;;;-0.50;99.90;;;-1.75;100.00;100455.19;4169331;28;20047;-75
2022/12/12 05:55:27;;;;;;;29.65;17.67;;;-0.50;99.90;;;-1.80;100.00;100446.00;4169634;28;20021;-74
2022/12/12 05:57:28;;;;;;;31.95;17.58;;;-0.50;99.90;;;-1.79;100.00;100461.44;4167810;28;20026;-75
2022/12/12 05:59:29;;;;;;;29.98;17.25;;;-0.50;99.90;;;-1.75;100.00;100462.09;4169267;28;20040;-74
2022/12/12 06:01:31;;;;;;;31.30;17.88;;;-0.50;99.90;;;-1.75;100.00;100464.69;4168501;28;20393;-75
2022/12/12 06:03:32;;;;;;;29.52;17.27;;;-0.50;99.90;;;-1.73;100.00;100476.59;4167902;28;20037;-74
2022/12/12 06:05:33;;;;;;;28.52;17.52;;;-0.50;99.90;;;-1.67;100.00;100478.00;4167879;28;20029;-75
2022/12/12 06:07:34;;;;;;;29.65;16.75;;;-0.50;99.90;;;-1.63;100.00;100482.09;4156601;28;20049;-75
2022/12/12 06:09:35;;;;;;;40.75;21.55;;;-0.40;99.90;;;-1.59;100.00;100482.78;4169019;28;20400;-74
2022/12/12 06:11:36;;;;;;;32.25;18.63;;;-0.40;99.90;;;-1.55;100.00;100487.66;4151486;28;20033;-75
2022/12/12 06:13:37;;;;;;;35.38;20.27;;;-0.30;99.90;;;-1.55;100.00;100487.66;4186241;28;20033;-75
2022/12/12 06:15:40;;;;;;;32.90;17.90;;;-0.30;99.90;;;-1.53;100.00;100477.25;4167314;28;20084;-75
2022/12/12 06:17:41;;;;;;;31.50;18.88;;;-0.30;99.90;;;-1.54;100.00;100471.25;4168948;28;20374;-75
2022/12/12 06:19:41;;;;;;;35.97;18.48;;;-0.30;99.90;;;-1.59;100.00;100465.50;4184056;28;20051;-74
2022/12/12 06:21:42;;;;;;;50.30;22.02;;;-0.30;99.90;;;-1.51;100.00;100478.84;4167660;28;20037;-75
2022/12/12 06:23:43;;;;;;;38.88;20.15;;;-0.30;99.90;;;-1.47;100.00;100466.56;4168650;28;20083;-75
2022/12/12 06:25:49;;;;;;;45.97;19.23;;;-0.30;99.90;;;-1.48;100.00;100468.31;4167693;28;20036;-75
2022/12/12 06:27:50;;;;;;;29.83;17.33;;;-0.30;99.90;;;-1.46;100.00;100468.22;4168845;28;20026;-75
2022/12/12 06:29:51;;;;;;;31.52;17.25;;;-0.30;99.90;;;-1.49;100.00;100451.13;4168512;28;20179;-75
2022/12/12 06:31:52;;;;;;;29.30;16.40;;;-0.30;99.90;;;-1.49;100.00;100448.53;4167404;28;20018;-75
2022/12/12 06:33:53;;;;;;;27.33;17.15;;;-0.30;99.90;;;-1.47;100.00;100458.81;4167648;28;20108;-75
2022/12/12 06:36:05;;;;;;;33.03;19.00;;;-0.30;99.90;;;-1.49;100.00;100440.78;4151070;28;20022;-75
2022/12/12 06:38:05;;;;;;;34.80;18.90;;;-0.30;99.90;;;-1.53;100.00;100441.88;4168779;28;20378;-75
2022/12/12 06:40:08;;;;;;;31.05;18.60;;;-0.30;99.90;;;-1.52;100.00;100438.34;4168720;28;20032;-75
2022/12/12 06:42:09;;;;;;;30.35;16.60;;;-0.30;99.90;;;-1.52;100.00;100427.22;4167426;28;20107;-75
2022/12/12 06:44:10;;;;;;;35.15;18.65;;;-0.30;99.90;;;-1.48;100.00;100423.50;4168727;28;20026;-75
2022/12/12 06:46:24;;;;;;;36.67;19.38;;;-0.30;99.90;;;-1.48;100.00;100426.94;4168030;28;20089;-75
2022/12/12 06:48:25;;;;;;;41.17;21.42;;;-0.30;99.90;;;-1.48;100.00;100428.69;4167603;28;20505;-75
2022/12/12 06:50:26;;;;;;;39.63;21.02;;;-0.30;99.90;;;-1.43;100.00;100429.22;4168730;28;20036;-75
2022/12/12 06:52:27;;;;;;;33.10;18.20;;;-0.20;99.90;;;-1.36;100.00;100417.63;4168481;28;20405;-74
2022/12/12 06:54:28;;;;;;;34.67;20.27;;;-0.20;99.90;;;-1.36;100.00;100412.44;4168662;28;20029;-75
2022/12/12 06:56:29;;;;;;;36.20;20.80;;;-0.20;99.90;;;-1.40;100.00;100405.78;4168714;28;20104;-74
2022/12/12 06:58:30;;;;;;;37.38;20.73;;;-0.20;99.90;;;-1.36;100.00;100404.69;4167356;28;20029;-74
2022/12/12 07:00:31;;;;;;;41.33;21.33;;;-0.10;99.90;;;-1.34;100.00;100395.06;4167629;28;20025;-75
2022/12/12 07:02:31;;;;;;;41.65;19.70;;;-0.10;99.90;;;-1.28;100.00;100400.72;4168412;28;20064;-75
2022/12/12 07:04:32;;;;;;;44.83;22.23;;;-0.10;99.90;;;-1.29;100.00;100393.06;4167350;28;20411;-75
2022/12/12 07:06:33;;;;;;;44.22;22.20;;;0.00;99.90;;;-1.25;100.00;100394.53;4167421;28;20053;-75
2022/12/12 07:08:35;;;;;;;38.10;22.52;;;-0.10;99.90;;;-1.27;100.00;100406.75;4152028;28;20026;-74
2022/12/12 07:10:36;;;;;;;41.92;20.63;;;0.00;99.90;;;-1.22;100.00;100402.13;4165934;28;20456;-74
2022/12/12 07:12:37;;;;;;;39.45;20.58;;;0.00;99.90;;;-1.20;100.00;100408.91;4172027;28;20030;-74
2022/12/12 07:14:38;;;;;;;39.35;19.85;;;0.00;99.90;;;-1.15;100.00;100406.03;4170252;28;20033;-74
2022/12/12 07:16:39;;;;;;;35.15;20.15;;;0.00;99.90;;;-1.14;100.00;100407.72;4170348;28;20013;-74
2022/12/12 07:18:41;;;;;;;36.13;19.05;;;0.10;99.90;;;-1.08;100.00;100403.91;4171683;28;20033;-74
2022/12/12 07:20:45;;;;;;;42.92;21.35;;;0.10;99.90;;;-1.06;100.00;100404.66;4171705;28;20079;-74
2022/12/12 07:22:46;;;;;;;48.60;21.50;;;0.20;99.90;;;-0.98;100.00;100423.13;4170325;28;20060;-74
2022/12/12 07:24:47;;;;;;;39.33;19.02;;;0.20;99.90;;;-0.96;100.00;100435.09;4170390;28;20112;-74
2022/12/12 07:26:48;;;;;;;37.97;19.13;;;0.20;99.90;;;-0.94;100.00;100409.09;4171539;28;20037;-74
2022/12/12 07:28:50;;;;;;;42.72;18.48;;;0.30;99.90;;;-0.94;100.00;100398.75;4170165;28;20056;-74
2022/12/12 07:30:51;;;;;;;35.25;19.05;;;0.30;99.90;;;-0.90;100.00;100400.25;4171466;28;20457;-74
2022/12/12 07:32:52;;;;;;;34.47;17.30;;;0.30;99.90;;;-0.93;100.00;100403.00;4171421;28;20029;-74
2022/12/12 07:34:53;;;;;;;41.92;20.02;;;0.40;99.90;;;-0.87;100.00;100408.66;4170062;28;20032;-75
2022/12/12 07:36:54;;;;;;;38.53;19.65;;;0.30;99.90;;;-0.88;100.00;100401.81;4171551;28;20022;-74
2022/12/12 07:38:55;;;;;;;46.20;21.08;;;0.40;99.90;;;-0.86;100.00;100392.19;4170103;28;20030;-75
2022/12/12 07:41:02;;;;;;;54.10;20.85;;;0.40;99.90;;;-0.82;100.00;100405.78;4171390;28;20033;-74
2022/12/12 07:43:03;;;;;;;35.42;18.17;;;0.40;99.90;;;-0.82;100.00;100405.78;4169977;28;20088;-74
2022/12/12 07:45:05;;;;;;;36.53;19.52;;;0.40;99.90;;;-0.81;100.00;100397.09;4170350;28;20025;-74
2022/12/12 07:47:06;;;;;;;39.63;14.05;;;0.40;99.90;;;-0.81;100.00;100410.03;4169891;28;20030;-74
2022/12/12 07:49:07;;;;;;;30.05;15.00;;;0.40;99.90;;;-0.81;100.00;100404.88;4171022;28;20456;-74
2022/12/12 07:51:08;;;;;;;28.67;15.27;;;0.50;99.90;;;-0.75;100.00;100399.31;4169986;28;20034;-74
2022/12/12 07:53:09;;;;;;;37.58;15.25;;;0.50;99.90;;;-0.72;100.00;100399.94;4170124;28;20026;-74
2022/12/12 07:55:10;;;;;;;27.45;13.90;;;0.50;99.90;;;-0.65;100.00;100387.47;4170907;28;20151;-74
2022/12/12 07:57:11;;;;;;;24.05;13.55;;;0.60;99.90;;;-0.64;100.00;100371.84;4169676;28;20021;-74
2022/12/12 07:59:12;;;;;;;25.58;13.63;;;0.60;99.90;;;-0.62;100.00;100367.38;4171138;28;20080;-74
2022/12/12 08:01:16;;;;;;;23.90;13.65;;;0.60;99.90;;;-0.63;100.00;100367.50;4170894;28;20025;-74
2022/12/12 08:03:17;;;;;;;31.83;13.75;;;0.60;99.90;;;-0.62;100.00;100358.78;4171024;28;20022;-74
2022/12/12 08:05:18;;;;;;;27.98;12.48;;;0.60;99.90;;;-0.64;100.00;100369.25;4169688;28;20037;-74
2022/12/12 08:07:19;;;;;;;54.50;15.82;;;0.60;99.90;;;-0.68;100.00;100359.16;4169834;28;20524;-74
2022/12/12 08:09:20;;;;;;;55.95;17.92;;;0.60;99.90;;;-0.68;100.00;100348.78;4170786;28;20033;-73
2022/12/12 08:11:24;;;;;;;28.20;14.15;;;0.60;99.90;;;-0.65;100.00;100351.19;4169655;28;20485;-74
2022/12/12 08:13:25;;;;;;;29.90;12.93;;;0.60;99.90;;;-0.66;100.00;100336.59;4170653;28;20029;-74
2022/12/12 08:15:26;;;;;;;45.83;15.13;;;0.60;99.90;;;-0.70;100.00;100340.28;4169303;28;20540;-74
2022/12/12 08:17:27;;;;;;;40.47;15.68;;;0.60;99.90;;;-0.67;100.00;100343.53;4170655;28;20032;-74
2022/12/12 08:19:28;;;;;;;28.85;13.73;;;0.60;99.90;;;-0.62;100.00;100338.06;4169895;28;20117;-74
2022/12/12 08:21:29;;;;;;;32.88;13.60;;;0.60;99.90;;;-0.62;100.00;100338.91;4170744;28;20105;-74
2022/12/12 08:23:30;;;;;;;37.05;14.30;;;0.60;99.90;;;-0.59;100.00;100340.47;4170277;28;20084;-74
2022/12/12 08:25:32;;;;;;;34.72;15.00;;;0.70;99.90;;;-0.59;100.00;100346.47;4169523;28;20030;-74
2022/12/12 08:27:33;;;;;;;30.67;14.00;;;0.70;99.90;;;-0.56;100.00;100337.69;4170625;28;20113;-74
2022/12/12 08:29:35;;;;;;;35.72;14.95;;;0.70;99.90;;;-0.55;100.00;100344.53;4169377;28;20396;-74
2022/12/12 08:31:38;;;;;;;33.67;14.65;;;0.70;99.90;;;-0.48;100.00;100345.00;4170212;28;20036;-74
2022/12/12 08:33:39;;;;;;;33.20;15.90;;;0.80;99.90;;;-0.46;100.00;100346.53;4169553;28;20401;-74
2022/12/12 08:35:40;;;;;;;24.73;14.27;;;0.80;99.90;;;-0.44;100.00;100349.88;4170674;28;20052;-74
2022/12/12 08:37:41;;;;;;;37.13;17.92;;;0.80;99.90;;;-0.40;100.00;100346.16;4170530;28;20018;-74
2022/12/12 08:39:41;;;;;;;28.13;14.52;;;0.80;99.90;;;-0.40;100.00;100348.75;4169143;28;20033;-74
2022/12/12 08:41:46;;;;;;;42.65;18.55;;;0.90;99.90;;;-0.34;100.00;100347.53;4169438;28;20060;-74
2022/12/12 08:43:48;;;;;;;28.30;14.27;;;0.90;99.90;;;-0.38;100.00;100346.06;4170335;28;20021;-74
2022/12/12 08:45:49;;;;;;;27.98;14.00;;;0.90;99.90;;;-0.38;100.00;100354.66;4168831;28;20037;-74
2022/12/12 08:47:50;;;;;;;28.77;15.18;;;0.90;99.90;;;-0.31;100.00;100355.13;4170304;28;20041;-74
2022/12/12 08:49:51;;;;;;;28.88;15.48;;;0.90;99.90;;;-0.30;100.00;100357.59;4170420;28;20026;-74